Time;durP1;ratioP1;P1;durP2;ratioP2;P2;SDS_P1;SDS_P2;PMS_P1;PMS_P2;Temp;Humidity;BMP_temperature;BMP_pressure;BME280_temperature;BME280_humidity;BME280_pressure;Samples;Min_cycle;Max_cycle;Signal;HPM_P1;HPM_P2
2021/12/08 04:03:07;;;;;;;6.68;2.00;;;6.10;84.40;;;;;;5132167;27;20478;-38
2021/12/08 04:05:46;;;;;;;3.63;1.00;;;6.20;84.30;;;;;;5131485;28;20068;-37
2021/12/08 04:08:19;;;;;;;3.95;1.52;;;6.20;84.20;;;;;;5131624;28;20036;-38
2021/12/08 04:10:48;;;;;;;3.58;1.35;;;6.30;84.00;;;;;;5131638;28;20391;-38
2021/12/08 04:13:15;;;;;;;2.05;1.00;;;6.30;84.10;;;;;;5131801;28;20038;-37
2021/12/08 04:15:41;;;;;;;2.50;1.00;;;6.30;84.00;;;;;;5131866;28;20106;-38
2021/12/08 04:18:07;;;;;;;0.70;0.63;;;6.30;83.90;;;;;;5131111;28;20058;-37
2021/12/08 04:20:39;;;;;;;3.25;1.75;;;6.20;84.20;;;;;;5131105;28;20024;-38
2021/12/08 04:23:07;;;;;;;4.93;1.25;;;6.20;84.40;;;;;;5131176;28;20023;-38
2021/12/08 04:25:35;;;;;;;2.72;1.10;;;6.30;84.50;;;;;;5131118;28;20019;-38
2021/12/08 04:28:07;;;;;;;5.68;1.55;;;6.20;84.30;;;;;;5130991;28;20079;-38
2021/12/08 04:30:43;;;;;;;1.92;1.02;;;6.20;84.50;;;;;;5131039;28;20029;-38
2021/12/08 04:33:09;;;;;;;1.27;1.17;;;6.30;84.40;;;;;;5112445;28;20394;-38
2021/12/08 04:35:37;;;;;;;3.22;0.98;;;6.20;84.30;;;;;;5131075;28;20019;-38
2021/12/08 04:38:07;;;;;;;3.30;1.67;;;6.20;84.70;;;;;;5130684;28;20023;-38
2021/12/08 04:40:58;;;;;;;3.97;1.42;;;6.30;84.60;;;;;;5112789;28;20031;-37
2021/12/08 04:43:40;;;;;;;1.52;1.00;;;6.10;84.80;;;;;;5130977;28;20035;-38
2021/12/08 05:03:04;;;;;;;4.72;1.30;;;6.00;85.70;;;;;;5130170;28;20054;-38
2021/12/08 05:08:21;;;;;;;3.10;1.75;;;6.10;85.60;;;;;;5130897;28;20371;-37
2021/12/08 05:10:50;;;;;;;4.47;1.60;;;6.00;85.70;;;;;;5130493;28;20113;-37
2021/12/08 05:13:18;;;;;;;4.85;1.73;;;6.00;85.80;;;;;;5123146;28;20083;-37
2021/12/08 05:15:49;;;;;;;2.03;1.00;;;6.00;85.90;;;;;;5116321;28;20084;-38
2021/12/08 05:18:20;;;;;;;2.95;1.45;;;6.00;86.00;;;;;;5098129;28;20023;-37
2021/12/08 05:20:56;;;;;;;2.45;1.60;;;6.10;86.10;;;;;;5116469;28;20024;-41
2021/12/08 05:23:24;;;;;;;4.13;1.38;;;6.10;86.10;;;;;;5116500;28;20063;-37
2021/12/08 05:25:52;;;;;;;3.08;1.52;;;6.10;85.90;;;;;;5116455;28;20015;-39
2021/12/08 05:28:21;;;;;;;3.05;1.83;;;6.10;85.90;;;;;;5116121;28;20020;-37
2021/12/08 05:30:54;;;;;;;4.97;2.13;;;6.10;86.10;;;;;;5116175;28;20027;-38
2021/12/08 05:33:21;;;;;;;5.93;1.50;;;6.10;86.10;;;;;;5116415;28;20464;-37
2021/12/08 05:35:47;;;;;;;7.40;2.80;;;6.20;85.80;;;;;;5116776;28;20032;-38
2021/12/08 05:38:15;;;;;;;2.75;1.75;;;6.20;85.70;;;;;;5116315;28;20020;-39
2021/12/08 05:40:57;;;;;;;2.45;1.25;;;6.20;85.90;;;;;;5115881;28;20020;-38
2021/12/08 05:43:23;;;;;;;4.25;1.70;;;6.20;85.50;;;;;;5101593;28;20089;-38
2021/12/08 05:45:50;;;;;;;9.07;1.65;;;6.20;85.80;;;;;;5117661;28;20467;-37
2021/12/08 05:48:16;;;;;;;3.05;1.80;;;6.10;85.90;;;;;;5116173;28;20026;-37
2021/12/08 05:50:44;;;;;;;6.55;1.35;;;6.20;85.90;;;;;;5115649;28;20031;-39
2021/12/08 05:53:10;;;;;;;7.45;1.75;;;6.20;85.60;;;;;;5115898;28;20024;-39
2021/12/08 05:55:37;;;;;;;5.20;2.83;;;6.30;85.30;;;;;;5115560;28;20026;-38
2021/12/08 05:58:04;;;;;;;5.43;1.95;;;6.30;85.10;;;;;;5115493;28;20032;-39
2021/12/08 06:00:42;;;;;;;5.70;1.60;;;6.30;85.20;;;;;;5115479;28;20026;-38
2021/12/08 06:03:10;;;;;;;2.25;1.60;;;6.30;85.10;;;;;;5115954;28;20039;-39
2021/12/08 06:05:35;;;;;;;3.03;1.52;;;6.30;85.10;;;;;;5115408;28;20107;-37
2021/12/08 06:08:01;;;;;;;4.72;1.80;;;6.20;85.20;;;;;;5115828;28;20471;-38
2021/12/08 06:10:32;;;;;;;19.38;4.57;;;6.10;85.60;;;;;;5115373;28;20040;-38
2021/12/08 06:12:58;;;;;;;3.92;1.63;;;6.10;85.80;;;;;;5115436;28;20030;-38
2021/12/08 06:15:24;;;;;;;5.65;1.80;;;6.20;85.60;;;;;;5115130;28;20465;-38
2021/12/08 06:17:54;;;;;;;5.15;1.88;;;6.10;85.50;;;;;;5115189;28;20023;-38
2021/12/08 06:20:31;;;;;;;5.47;2.00;;;6.20;85.80;;;;;;5115421;28;20031;-38
2021/12/08 06:22:57;;;;;;;2.58;1.67;;;6.20;85.60;;;;;;5097121;28;20131;-38
2021/12/08 06:25:24;;;;;;;5.28;1.60;;;6.20;85.60;;;;;;5114683;28;20024;-38
2021/12/08 06:27:50;;;;;;;10.25;2.25;;;6.20;85.80;;;;;;5115746;28;20031;-39
2021/12/08 06:30:22;;;;;;;6.68;1.20;;;6.10;85.80;;;;;;5096922;28;20073;-38
2021/12/08 06:32:49;;;;;;;8.23;2.63;;;6.20;85.80;;;;;;5115369;28;20508;-38
2021/12/08 06:35:24;;;;;;;8.25;2.13;;;6.30;85.70;;;;;;5114653;28;20455;-38
2021/12/08 06:37:54;;;;;;;7.10;1.42;;;6.30;85.30;;;;;;5114540;28;20102;-39
2021/12/08 06:40:33;;;;;;;6.20;2.28;;;6.20;85.50;;;;;;5115111;28;20031;-38
2021/12/08 06:43:02;;;;;;;6.47;2.00;;;6.20;86.10;;;;;;5115918;28;20074;-37
2021/12/08 06:45:32;;;;;;;8.23;2.15;;;6.10;86.10;;;;;;5114442;28;20399;-38
2021/12/08 06:48:01;;;;;;;6.45;2.15;;;6.00;86.40;;;;;;5114904;28;20023;-38
2021/12/08 06:50:40;;;;;;;3.53;1.60;;;6.00;86.50;;;;;;5114851;28;20103;-38
2021/12/08 06:53:06;;;;;;;6.88;2.38;;;6.00;86.70;;;;;;5116133;28;20039;-38
2021/12/08 06:55:38;;;;;;;3.92;1.98;;;5.90;87.00;;;;;;5114722;28;20105;-38
2021/12/08 06:58:08;;;;;;;3.70;1.35;;;5.80;87.00;;;;;;5114758;28;20024;-39
2021/12/08 07:01:01;;;;;;;8.45;3.08;;;5.80;87.30;;;;;;5114303;28;20032;-39
2021/12/08 07:03:34;;;;;;;6.90;2.22;;;5.80;87.70;;;;;;5095710;28;20047;-39
2021/12/08 07:06:11;;;;;;;7.30;2.38;;;5.80;87.40;;;;;;5096252;28;20088;-39
2021/12/08 07:08:47;;;;;;;9.90;2.28;;;5.80;87.30;;;;;;5114251;28;20024;-39
2021/12/08 07:11:17;;;;;;;5.97;2.20;;;5.80;87.60;;;;;;5114223;28;20435;-38
2021/12/08 07:13:43;;;;;;;5.47;1.70;;;5.80;87.40;;;;;;5113993;28;20023;-39
2021/12/08 07:16:15;;;;;;;10.15;2.88;;;5.70;87.40;;;;;;5114314;28;20051;-38
2021/12/08 07:18:52;;;;;;;10.50;3.55;;;5.80;87.50;;;;;;5113580;28;20482;-39
2021/12/08 07:21:21;;;;;;;8.75;2.83;;;5.70;87.70;;;;;;5113793;28;20023;-38
2021/12/08 07:23:54;;;;;;;6.47;2.20;;;5.80;87.70;;;;;;5114164;28;20024;-40
2021/12/08 07:26:24;;;;;;;9.52;2.33;;;5.80;87.40;;;;;;5114386;28;20015;-39
2021/12/08 07:28:52;;;;;;;8.88;4.32;;;5.80;87.30;;;;;;5113675;28;20027;-38
2021/12/08 07:31:31;;;;;;;4.38;1.35;;;5.80;87.00;;;;;;5113954;28;20023;-40
2021/12/08 07:34:04;;;;;;;6.15;2.33;;;5.80;87.20;;;;;;5114038;28;20024;-39
2021/12/08 07:36:34;;;;;;;8.27;2.45;;;5.90;87.50;;;;;;5113658;28;20023;-39
2021/12/08 07:39:00;;;;;;;7.97;2.47;;;5.90;87.30;;;;;;5113725;28;20123;-38
2021/12/08 07:41:32;;;;;;;6.78;1.90;;;6.00;87.00;;;;;;5113562;28;20128;-39
2021/12/08 07:44:13;;;;;;;5.38;2.13;;;5.90;86.70;;;;;;5096234;28;20026;-38
2021/12/08 07:46:46;;;;;;;7.57;2.72;;;6.00;86.80;;;;;;5113421;28;20020;-38
2021/12/08 07:49:23;;;;;;;7.55;2.85;;;6.00;86.90;;;;;;5113880;28;20016;-38
2021/12/08 07:52:09;;;;;;;4.28;2.28;;;6.00;86.90;;;;;;5095320;28;20115;-38
2021/12/08 07:54:37;;;;;;;7.40;2.67;;;6.00;86.60;;;;;;5112966;28;20044;-39
2021/12/08 07:57:07;;;;;;;2.72;1.92;;;6.10;86.50;;;;;;5113832;28;20491;-39
2021/12/08 07:59:35;;;;;;;3.15;2.35;;;6.10;86.40;;;;;;5113691;28;20047;-38
2021/12/08 14:03:20;;;;;;;6.10;1.45;;;6.80;74.60;;;;;;5008216;28;20530;-40
2021/12/08 14:05:46;;;;;;;10.55;2.60;;;6.70;74.70;;;;;;5007444;28;20026;-41
2021/12/08 14:08:24;;;;;;;5.57;1.48;;;6.80;74.60;;;;;;5007076;28;20038;-40
2021/12/08 14:10:54;;;;;;;6.93;2.88;;;6.80;74.50;;;;;;5006673;28;20478;-40
2021/12/08 14:13:26;;;;;;;10.13;4.15;;;6.80;75.10;;;;;;5007319;28;20510;-39
2021/12/08 14:15:56;;;;;;;22.05;5.07;;;6.80;74.50;;;;;;5007887;28;20026;-40
2021/12/08 14:18:25;;;;;;;8.32;2.38;;;6.80;74.60;;;;;;5007537;28;20136;-39
2021/12/08 14:21:04;;;;;;;6.10;2.00;;;6.80;74.30;;;;;;5006892;28;20075;-40
2021/12/08 14:23:34;;;;;;;11.48;1.80;;;6.80;74.40;;;;;;5007532;28;20022;-44
2021/12/08 14:26:05;;;;;;;8.82;2.40;;;6.80;74.90;;;;;;5007323;28;20022;-40
2021/12/08 14:28:39;;;;;;;5.75;1.67;;;6.80;74.60;;;;;;5008343;28;20042;-40
2021/12/08 14:31:17;;;;;;;5.15;1.33;;;6.80;74.60;;;;;;5007361;28;20413;-38
2021/12/08 14:33:56;;;;;;;8.93;2.75;;;6.80;74.50;;;;;;5007707;28;20026;-38
2021/12/08 14:36:37;;;;;;;6.63;1.38;;;6.80;74.00;;;;;;5007801;28;20022;-38
2021/12/08 14:39:09;;;;;;;8.38;2.88;;;6.80;74.30;;;;;;5006950;28;20030;-39
2021/12/08 14:41:37;;;;;;;3.60;2.00;;;6.80;74.50;;;;;;4990338;28;20117;-39
2021/12/08 14:44:13;;;;;;;17.35;2.75;;;6.70;74.70;;;;;;5006724;28;20023;-39
2021/12/08 14:46:42;;;;;;;4.80;1.45;;;6.70;74.50;;;;;;5006828;28;20036;-38
2021/12/08 14:49:12;;;;;;;5.22;2.38;;;6.60;74.80;;;;;;5006642;28;20018;-38
2021/12/08 14:51:39;;;;;;;9.30;2.00;;;6.70;74.60;;;;;;5007467;28;20046;-38
2021/12/08 14:54:28;;;;;;;5.85;1.85;;;6.70;74.40;;;;;;5007693;28;20034;-39
2021/12/08 14:57:05;;;;;;;9.75;3.30;;;6.60;74.80;;;;;;5013958;28;20122;-38
2021/12/08 14:59:33;;;;;;;7.95;2.35;;;6.50;75.10;;;;;;5007088;28;20030;-39
2021/12/08 15:01:59;;;;;;;7.68;2.08;;;6.40;75.50;;;;;;5006676;28;20046;-39
2021/12/08 15:04:25;;;;;;;11.95;3.05;;;6.40;75.30;;;;;;5006487;28;20109;-38
2021/12/08 15:07:00;;;;;;;16.20;5.25;;;6.40;75.60;;;;;;5007462;28;20026;-39
2021/12/08 15:09:27;;;;;;;13.23;2.25;;;6.40;75.40;;;;;;5006769;28;20030;-40
2021/12/08 15:11:55;;;;;;;9.32;2.30;;;6.30;75.40;;;;;;5005791;28;20026;-39
2021/12/08 15:14:22;;;;;;;8.55;3.28;;;6.30;75.60;;;;;;4994686;28;20407;-39
2021/12/08 15:16:49;;;;;;;14.00;2.13;;;6.40;75.30;;;;;;4994179;28;20531;-39
2021/12/08 15:19:16;;;;;;;7.18;2.08;;;6.40;75.20;;;;;;4996327;28;20027;-39
2021/12/08 15:21:46;;;;;;;8.50;2.75;;;6.30;75.60;;;;;;4992754;28;20030;-40
2021/12/08 15:24:14;;;;;;;4.70;1.98;;;6.10;76.40;;;;;;4992951;28;20030;-45
2021/12/08 15:26:40;;;;;;;6.95;2.00;;;6.00;76.70;;;;;;4995333;28;20053;-39
2021/12/08 15:29:18;;;;;;;9.70;2.45;;;6.00;76.70;;;;;;4992934;28;20340;-39
2021/12/08 15:31:54;;;;;;;9.93;2.35;;;6.00;76.70;;;;;;4992946;28;20501;-39
2021/12/08 15:34:26;;;;;;;10.70;2.28;;;6.00;76.40;;;;;;4993395;28;20047;-38
2021/12/08 15:36:59;;;;;;;9.00;1.90;;;5.90;76.60;;;;;;4993175;28;20548;-39
2021/12/08 15:39:27;;;;;;;8.00;1.98;;;5.90;76.60;;;;;;4993762;28;20034;-39
2021/12/08 15:41:55;;;;;;;9.63;4.28;;;5.90;76.80;;;;;;4993231;28;20125;-38
2021/12/08 15:44:20;;;;;;;13.73;2.10;;;5.80;76.90;;;;;;4993505;28;20033;-39
2021/12/08 15:46:51;;;;;;;10.02;3.00;;;5.80;77.00;;;;;;4991409;28;20026;-38
2021/12/08 15:49:21;;;;;;;8.38;2.95;;;5.80;76.90;;;;;;4994938;28;20423;-39
2021/12/08 15:51:47;;;;;;;8.40;1.67;;;5.80;76.80;;;;;;4999022;28;20094;-39
2021/12/08 15:54:13;;;;;;;10.27;2.67;;;5.80;76.60;;;;;;5000051;28;20031;-40
2021/12/08 15:56:43;;;;;;;5.50;2.08;;;5.80;76.70;;;;;;4998104;28;20498;-39
2021/12/08 15:59:22;;;;;;;8.70;1.60;;;5.80;76.70;;;;;;4998427;28;20037;-39
2021/12/08 16:01:52;;;;;;;5.95;1.50;;;5.80;76.90;;;;;;4998252;28;20042;-38
2021/12/08 16:04:22;;;;;;;10.00;1.90;;;5.80;76.70;;;;;;5001358;28;20019;-40
2021/12/08 16:06:52;;;;;;;8.88;1.83;;;5.80;76.50;;;;;;5000187;28;20034;-39
2021/12/08 16:09:25;;;;;;;14.15;1.63;;;5.90;76.10;;;;;;4997727;28;20048;-38
2021/12/08 16:12:12;;;;;;;7.35;2.30;;;6.00;76.20;;;;;;4998248;28;20080;-40
2021/12/08 16:14:52;;;;;;;7.20;1.85;;;6.00;75.80;;;;;;4997578;28;20466;-40
2021/12/08 16:17:25;;;;;;;7.20;2.30;;;6.00;75.80;;;;;;4992458;28;20478;-39
2021/12/08 16:20:03;;;;;;;14.48;3.85;;;6.00;75.70;;;;;;4992963;28;20539;-40
2021/12/08 16:22:29;;;;;;;19.25;4.32;;;6.20;75.50;;;;;;4992967;28;20030;-41
2021/12/08 16:24:55;;;;;;;12.55;3.40;;;6.20;75.10;;;;;;4993661;28;20426;-39
2021/12/08 16:27:27;;;;;;;22.27;3.75;;;6.20;75.00;;;;;;4992493;28;20411;-39
2021/12/08 16:29:53;;;;;;;7.82;2.30;;;6.20;75.00;;;;;;4991225;28;20469;-39
2021/12/08 16:32:21;;;;;;;6.47;2.55;;;6.30;75.10;;;;;;4991847;28;20022;-39
2021/12/08 16:34:49;;;;;;;5.18;2.90;;;6.30;74.90;;;;;;4992059;28;20035;-40
2021/12/08 16:37:15;;;;;;;9.05;1.85;;;6.30;74.30;;;;;;4991738;28;20109;-39
2021/12/08 16:45:25;;;;;;;10.20;2.63;;;6.30;74.90;;;;;;4992429;28;20113;-41
2021/12/08 16:47:51;;;;;;;8.65;3.17;;;6.30;74.90;;;;;;4992482;28;20030;-41
2021/12/08 16:50:21;;;;;;;15.88;3.78;;;6.30;74.80;;;;;;4991791;28;20091;-39
2021/12/08 16:52:47;;;;;;;5.65;2.17;;;6.30;74.70;;;;;;4992265;28;20084;-40
2021/12/08 16:55:16;;;;;;;10.68;3.45;;;6.20;75.00;;;;;;4990979;28;20026;-40
2021/12/08 16:57:47;;;;;;;10.20;2.40;;;6.20;75.30;;;;;;4990601;28;20453;-39
2021/12/08 17:00:25;;;;;;;5.10;2.60;;;6.20;75.20;;;;;;4990297;28;20060;-39
2021/12/08 17:02:52;;;;;;;5.90;2.08;;;6.20;75.40;;;;;;4991729;28;20054;-39
2021/12/08 17:05:18;;;;;;;9.50;2.95;;;6.20;75.00;;;;;;4991710;28;20429;-39
2021/12/08 17:07:45;;;;;;;6.40;2.22;;;6.20;75.30;;;;;;4992192;28;20502;-39
2021/12/08 17:10:12;;;;;;;9.57;1.83;;;6.20;75.40;;;;;;4993015;28;20382;-39
2021/12/08 17:12:38;;;;;;;9.57;2.08;;;6.20;75.00;;;;;;4993328;28;20022;-39
2021/12/08 17:15:07;;;;;;;10.50;1.60;;;6.20;75.00;;;;;;4993239;28;20034;-38
2021/12/08 17:17:34;;;;;;;9.38;2.08;;;6.30;74.80;;;;;;4993013;28;20031;-39
2021/12/08 17:20:04;;;;;;;14.20;2.05;;;6.20;74.90;;;;;;4992811;28;20053;-41
2021/12/08 17:22:30;;;;;;;11.65;2.65;;;6.20;75.20;;;;;;4992110;28;20066;-39
2021/12/08 17:25:07;;;;;;;14.25;3.00;;;6.30;75.10;;;;;;4992304;28;20035;-39
2021/12/08 17:27:39;;;;;;;11.88;2.67;;;6.30;74.80;;;;;;4991085;28;20035;-39
2021/12/08 17:30:12;;;;;;;7.95;2.75;;;6.30;74.50;;;;;;4991367;28;20026;-39
2021/12/08 17:32:37;;;;;;;7.93;3.20;;;6.20;74.80;;;;;;4974267;28;20076;-39
2021/12/08 17:35:06;;;;;;;9.15;2.15;;;6.20;74.70;;;;;;4990238;28;20030;-40
2021/12/08 17:37:32;;;;;;;15.20;2.67;;;6.10;74.90;;;;;;4991099;28;20034;-39
2021/12/08 17:39:58;;;;;;;11.90;2.78;;;6.10;75.00;;;;;;4991320;28;20514;-39
2021/12/08 17:42:24;;;;;;;6.63;2.88;;;6.10;75.20;;;;;;4991653;28;20105;-39
2021/12/08 17:44:50;;;;;;;10.70;3.38;;;6.10;75.30;;;;;;4991474;28;20022;-39
2021/12/08 17:47:17;;;;;;;6.00;2.50;;;6.10;74.90;;;;;;4991433;28;20382;-38
2021/12/08 17:49:43;;;;;;;9.77;2.88;;;6.00;75.40;;;;;;4990833;28;20501;-39
2021/12/08 17:52:09;;;;;;;10.20;2.40;;;5.90;76.00;;;;;;4991271;28;20022;-38
2021/12/08 17:54:34;;;;;;;14.77;3.78;;;5.80;76.30;;;;;;4990560;28;20470;-39
2021/12/08 17:57:00;;;;;;;11.38;3.72;;;5.80;76.40;;;;;;4991151;28;20072;-40
2021/12/08 17:59:27;;;;;;;14.77;3.22;;;5.70;76.80;;;;;;4991659;28;20036;-38
2021/12/08 18:01:57;;;;;;;12.52;3.17;;;5.70;76.80;;;;;;4993097;28;20046;-44
2021/12/08 18:04:23;;;;;;;7.15;2.60;;;5.60;77.00;;;;;;4990247;28;20030;-39
2021/12/08 18:06:48;;;;;;;8.45;2.30;;;5.50;77.70;;;;;;4991899;28;20023;-40
2021/12/08 18:09:18;;;;;;;10.35;2.90;;;5.60;77.20;;;;;;4990824;28;20475;-39
2021/12/08 18:11:45;;;;;;;12.02;3.60;;;5.60;77.30;;;;;;4990894;28;20034;-39
2021/12/08 18:14:11;;;;;;;8.50;2.90;;;5.50;77.50;;;;;;4990688;28;20060;-53
2021/12/08 18:16:38;;;;;;;7.25;3.17;;;5.50;77.40;;;;;;4990908;28;20163;-51
2021/12/08 18:19:05;;;;;;;13.68;5.47;;;5.40;78.00;;;;;;4990793;28;20074;-54
2021/12/08 18:21:32;;;;;;;14.70;4.85;;;5.40;78.20;;;;;;4990490;28;20031;-52
2021/12/08 18:23:58;;;;;;;11.32;4.82;;;5.30;78.60;;;;;;4991248;28;20103;-49
2021/12/08 18:26:24;;;;;;;17.17;4.45;;;5.30;78.70;;;;;;4991878;28;20052;-53
2021/12/08 18:28:50;;;;;;;10.23;4.00;;;5.20;78.90;;;;;;4991609;28;20462;-54
2021/12/08 18:31:17;;;;;;;12.07;4.80;;;5.20;79.40;;;;;;4991247;28;20023;-50
2021/12/08 18:33:43;;;;;;;13.07;4.68;;;5.10;79.40;;;;;;4991026;28;20388;-50
2021/12/08 18:36:22;;;;;;;11.32;4.50;;;5.10;79.70;;;;;;4990933;28;20039;-51
2021/12/08 18:38:49;;;;;;;13.93;4.65;;;5.10;79.80;;;;;;4990322;28;20113;-52
2021/12/08 18:41:18;;;;;;;8.80;5.68;;;5.10;79.60;;;;;;4991025;28;20027;-55
2021/12/08 18:43:46;;;;;;;15.77;4.80;;;5.20;79.80;;;;;;4989125;28;20362;-51
2021/12/08 18:46:14;;;;;;;11.57;5.68;;;5.10;79.90;;;;;;4990953;28;20075;-49
2021/12/08 18:48:41;;;;;;;12.27;4.50;;;5.10;80.00;;;;;;4992588;28;20086;-52
2021/12/08 18:51:10;;;;;;;12.52;4.40;;;5.10;79.90;;;;;;4994371;28;20087;-50
2021/12/08 18:53:41;;;;;;;11.73;5.03;;;5.10;80.10;;;;;;4993997;28;20046;-49
2021/12/08 18:56:07;;;;;;;10.70;4.47;;;5.00;80.50;;;;;;4994024;28;20113;-47
2021/12/08 18:58:34;;;;;;;8.73;4.57;;;4.90;80.50;;;;;;4993859;28;20394;-58
2021/12/08 19:01:02;;;;;;;8.30;4.50;;;4.80;80.60;;;;;;4993331;28;20498;-52
2021/12/08 19:03:28;;;;;;;11.35;4.40;;;4.80;80.90;;;;;;4993881;28;20118;-50
2021/12/08 19:05:56;;;;;;;12.88;3.60;;;4.90;80.90;;;;;;4993781;28;20065;-49
2021/12/08 19:08:25;;;;;;;12.52;4.15;;;4.90;80.70;;;;;;4993798;28;20097;-50
2021/12/08 19:10:54;;;;;;;9.70;5.05;;;5.00;80.40;;;;;;4993706;28;20080;-51
2021/12/08 19:13:20;;;;;;;13.38;4.75;;;5.10;80.20;;;;;;4993624;28;20084;-51
2021/12/08 19:15:46;;;;;;;9.05;3.92;;;5.00;80.10;;;;;;4993726;28;20121;-51
2021/12/08 19:18:14;;;;;;;15.85;4.93;;;4.90;80.50;;;;;;4993400;28;20038;-52
2021/12/08 19:20:39;;;;;;;8.65;3.97;;;4.90;80.40;;;;;;4993424;28;20076;-54
2021/12/08 19:23:08;;;;;;;16.55;5.13;;;4.80;80.60;;;;;;4993498;28;20478;-53
2021/12/08 19:25:39;;;;;;;19.33;7.03;;;4.70;81.40;;;;;;4993722;28;20026;-50
2021/12/08 19:28:10;;;;;;;11.52;4.43;;;4.80;81.20;;;;;;4993048;28;20027;-52
2021/12/08 19:30:36;;;;;;;11.80;5.57;;;4.70;81.30;;;;;;4976904;28;20049;-50
2021/12/08 19:33:08;;;;;;;16.92;4.55;;;4.60;81.50;;;;;;4993158;28;20033;-52
2021/12/08 19:35:35;;;;;;;15.75;4.50;;;4.50;82.10;;;;;;4993131;28;20037;-53
2021/12/08 19:38:04;;;;;;;26.90;7.65;;;4.30;82.50;;;;;;4993313;28;20029;-50
2021/12/08 19:40:30;;;;;;;14.57;5.32;;;4.40;82.90;;;;;;4976231;28;20031;-51
2021/12/08 19:42:55;;;;;;;13.00;6.00;;;4.30;83.10;;;;;;4993125;28;20030;-52
2021/12/08 19:45:24;;;;;;;18.38;6.95;;;4.40;83.10;;;;;;4993144;28;20026;-52
2021/12/08 19:47:51;;;;;;;22.77;8.25;;;4.40;82.90;;;;;;4993106;28;20106;-51
2021/12/08 19:50:21;;;;;;;14.80;6.93;;;4.40;83.60;;;;;;4993194;28;20064;-51
2021/12/08 19:52:47;;;;;;;21.95;10.70;;;4.60;82.50;;;;;;4993102;28;20036;-49
2021/12/08 19:55:15;;;;;;;22.40;10.07;;;4.40;83.00;;;;;;4993482;28;20546;-52
2021/12/08 19:57:41;;;;;;;31.85;13.52;;;4.70;83.10;;;;;;4992974;28;20079;-50
2021/12/08 20:00:10;;;;;;;21.90;10.57;;;4.80;82.00;;;;;;4993238;28;20417;-54
2021/12/08 20:02:36;;;;;;;24.17;12.55;;;4.70;82.30;;;;;;4991370;28;20043;-53
2021/12/08 20:05:01;;;;;;;28.75;14.40;;;4.80;82.40;;;;;;4992532;28;20084;-49
2021/12/08 20:07:30;;;;;;;24.75;13.98;;;4.60;81.90;;;;;;4992912;28;20038;-49
2021/12/08 20:09:57;;;;;;;24.27;13.00;;;4.70;82.60;;;;;;4993336;28;20535;-50
2021/12/08 20:12:23;;;;;;;30.33;14.85;;;4.80;82.10;;;;;;4992024;28;20030;-48
2021/12/08 20:14:49;;;;;;;27.85;13.27;;;4.90;81.30;;;;;;4993006;28;20313;-48
2021/12/08 20:17:14;;;;;;;31.75;14.98;;;5.00;82.00;;;;;;4993234;28;20029;-55
2021/12/08 20:19:42;;;;;;;25.40;13.73;;;5.10;80.80;;;;;;4992828;28;20111;-52
2021/12/08 20:22:08;;;;;;;22.10;10.65;;;4.80;81.60;;;;;;4992912;28;20042;-51
2021/12/08 20:24:35;;;;;;;18.48;9.32;;;4.70;82.50;;;;;;4993255;28;20106;-49
2021/12/08 20:27:01;;;;;;;17.38;6.20;;;4.60;83.00;;;;;;4992630;28;20026;-51
2021/12/08 20:29:28;;;;;;;11.93;5.57;;;4.60;83.00;;;;;;4992696;28;20026;-53
2021/12/08 20:31:53;;;;;;;14.40;7.53;;;4.60;83.00;;;;;;4991133;28;20034;-49
2021/12/08 20:34:19;;;;;;;14.55;5.38;;;4.60;82.30;;;;;;4992441;28;20054;-49
2021/12/08 20:36:45;;;;;;;13.38;5.30;;;4.70;81.90;;;;;;4992789;28;20030;-50
2021/12/08 20:39:11;;;;;;;18.25;5.93;;;4.60;82.00;;;;;;4992539;28;20031;-52
2021/12/08 20:41:36;;;;;;;9.55;4.68;;;4.50;82.30;;;;;;4992546;28;20363;-50
2021/12/08 20:44:03;;;;;;;15.57;4.78;;;4.60;82.10;;;;;;4992022;28;20374;-50
2021/12/08 20:46:30;;;;;;;12.10;4.45;;;4.70;81.40;;;;;;4992253;28;20030;-54
2021/12/08 20:48:56;;;;;;;11.98;4.53;;;4.60;81.20;;;;;;4993105;28;20355;-49
2021/12/08 20:51:22;;;;;;;11.73;4.00;;;4.50;81.30;;;;;;4992329;28;20096;-50
2021/12/08 20:53:51;;;;;;;11.15;4.50;;;4.60;81.20;;;;;;4992427;28;20054;-49
2021/12/08 20:56:23;;;;;;;18.70;5.13;;;4.60;81.10;;;;;;4991953;28;20042;-49
2021/12/08 20:58:55;;;;;;;12.50;3.90;;;4.60;81.20;;;;;;4991087;28;20030;-50
2021/12/08 21:01:28;;;;;;;11.95;5.22;;;4.60;80.90;;;;;;4990587;28;20043;-50
2021/12/08 21:03:55;;;;;;;9.63;5.15;;;4.60;81.10;;;;;;4992555;28;20087;-49
2021/12/08 21:06:21;;;;;;;11.45;5.28;;;4.50;81.30;;;;;;4991180;28;20096;-53
2021/12/08 21:08:48;;;;;;;10.45;5.38;;;4.50;81.30;;;;;;4991823;28;20022;-49
2021/12/08 21:11:14;;;;;;;12.52;5.10;;;4.50;81.50;;;;;;4990357;28;20546;-52
2021/12/08 21:13:40;;;;;;;14.80;6.15;;;4.50;81.50;;;;;;4992482;28;20026;-51
2021/12/08 21:16:07;;;;;;;13.63;6.72;;;4.60;81.30;;;;;;4991966;28;20037;-52
2021/12/08 21:18:35;;;;;;;16.38;5.88;;;4.50;81.40;;;;;;4991884;28;20057;-49
2021/12/08 21:21:02;;;;;;;15.75;5.13;;;4.50;81.50;;;;;;4991989;28;20079;-49
2021/12/08 21:23:28;;;;;;;13.02;4.63;;;4.50;81.50;;;;;;4992291;28;20033;-52
2021/12/08 21:25:53;;;;;;;14.80;5.28;;;4.50;81.60;;;;;;4991795;28;20382;-49
2021/12/08 21:28:19;;;;;;;9.35;4.25;;;4.50;81.80;;;;;;4991711;28;20022;-51
2021/12/08 21:30:48;;;;;;;16.75;4.43;;;4.50;82.00;;;;;;4991987;28;20023;-49
2021/12/08 21:33:16;;;;;;;12.27;4.47;;;4.50;81.80;;;;;;4992215;28;20086;-50
2021/12/08 21:35:44;;;;;;;12.68;6.10;;;4.50;82.00;;;;;;4992001;28;20351;-53
2021/12/08 21:38:25;;;;;;;14.07;6.03;;;4.40;82.10;;;;;;4991827;28;20026;-48
2021/12/08 21:41:04;;;;;;;20.48;6.28;;;4.40;82.50;;;;;;4992425;28;20420;-52
2021/12/08 21:43:33;;;;;;;14.82;5.00;;;4.50;82.30;;;;;;4991264;28;20107;-51
2021/12/08 21:46:00;;;;;;;8.02;4.13;;;4.50;82.00;;;;;;4990348;28;20099;-53
2021/12/08 21:48:26;;;;;;;9.23;3.72;;;4.40;82.20;;;;;;4991446;28;20031;-49
2021/12/08 21:50:52;;;;;;;8.55;3.55;;;4.40;82.20;;;;;;4991638;28;20034;-50
2021/12/08 21:53:18;;;;;;;12.45;6.10;;;4.30;82.40;;;;;;4990499;28;20031;-49
2021/12/08 21:55:44;;;;;;;7.88;4.32;;;4.40;82.50;;;;;;4991796;28;20076;-52
2021/12/08 21:58:11;;;;;;;17.73;5.45;;;4.40;82.10;;;;;;4989749;28;20058;-48
2021/12/08 22:00:38;;;;;;;12.13;5.05;;;4.40;82.20;;;;;;4991032;28;20054;-49
2021/12/08 22:03:05;;;;;;;11.25;4.78;;;4.50;82.10;;;;;;4990880;28;20053;-50
2021/12/08 22:05:33;;;;;;;23.05;7.03;;;4.50;81.60;;;;;;4990704;28;20034;-49
2021/12/08 22:07:59;;;;;;;16.05;5.72;;;4.30;82.40;;;;;;4991256;28;20044;-50
2021/12/08 22:10:26;;;;;;;12.15;6.22;;;4.40;82.80;;;;;;4991320;28;20118;-53
2021/12/08 22:12:54;;;;;;;13.25;5.85;;;4.30;82.80;;;;;;4989909;28;20026;-50
2021/12/08 22:15:22;;;;;;;15.88;6.72;;;4.40;82.80;;;;;;4990071;28;20026;-49
2021/12/08 22:17:51;;;;;;;17.02;7.93;;;4.30;82.40;;;;;;4990419;28;20034;-48
2021/12/08 22:20:18;;;;;;;18.92;9.43;;;4.20;82.90;;;;;;4990909;28;20038;-54
2021/12/08 22:22:44;;;;;;;24.08;9.55;;;4.20;83.10;;;;;;4991353;28;20444;-48
2021/12/08 22:25:11;;;;;;;20.45;10.13;;;4.30;83.30;;;;;;4994778;28;20030;-52
2021/12/08 22:27:38;;;;;;;19.85;10.05;;;4.00;83.10;;;;;;4995127;28;20562;-49
2021/12/08 22:30:07;;;;;;;27.50;10.77;;;3.80;83.80;;;;;;4995160;28;20029;-49
2021/12/08 22:32:33;;;;;;;15.27;8.48;;;3.60;84.50;;;;;;4995324;28;20027;-50
2021/12/08 22:34:59;;;;;;;22.23;10.15;;;3.60;85.00;;;;;;4994517;28;20026;-53
2021/12/08 22:37:24;;;;;;;21.75;9.32;;;3.60;85.40;;;;;;4995149;28;20034;-48
2021/12/08 22:39:51;;;;;;;22.00;9.80;;;3.60;85.40;;;;;;4994557;28;20022;-50
2021/12/08 22:42:17;;;;;;;20.88;10.30;;;3.50;85.60;;;;;;4994638;28;20031;-50
2021/12/08 22:44:43;;;;;;;20.60;11.55;;;3.70;85.30;;;;;;4994956;28;20035;-50
2021/12/08 22:47:09;;;;;;;21.42;9.98;;;3.80;85.30;;;;;;4994892;28;20034;-50
2021/12/08 22:49:36;;;;;;;20.83;10.27;;;3.80;84.30;;;;;;4995049;28;20031;-49
2021/12/08 22:52:04;;;;;;;13.95;8.10;;;3.80;84.60;;;;;;4994461;28;20046;-49
2021/12/08 22:54:30;;;;;;;16.63;7.25;;;3.60;85.10;;;;;;4994324;28;20034;-49
2021/12/08 22:56:57;;;;;;;11.98;5.30;;;3.60;85.40;;;;;;4994320;28;20054;-51
2021/12/08 22:59:24;;;;;;;9.93;4.18;;;3.60;85.90;;;;;;4994345;28;20140;-50
